Time;durP1;ratioP1;P1;durP2;ratioP2;P2;SDS_P1;SDS_P2;PMS_P1;PMS_P2;Temp;Humidity;BMP_temperature;BMP_pressure;BME280_temperature;BME280_humidity;BME280_pressure;Samples;Min_cycle;Max_cycle;Signal;HPM_P1;HPM_P2
2023/07/17 00:01:47;;;;;;;;;;;;;;;23.79;51.81;101135.61;107617;1251;113041;-64
2023/07/17 00:04:16;;;;;;;;;;;;;;;23.76;51.76;101138.91;107678;1250;109635;-62
2023/07/17 00:06:44;;;;;;;;;;;;;;;23.74;51.93;101134.64;107633;1253;107870;-63
2023/07/17 00:09:12;;;;;;;;;;;;;;;23.73;51.74;101135.75;107607;1251;99251;-62
2023/07/17 00:11:41;;;;;;;;;;;;;;;23.70;51.97;101126.93;107630;1251;99268;-63
2023/07/17 00:14:09;;;;;;;;;;;;;;;23.66;52.23;101128.29;107626;1251;113564;-63
2023/07/17 00:16:37;;;;;;;;;;;;;;;23.57;52.61;101127.08;107657;1251;109283;-62
2023/07/17 00:19:06;;;;;;;;;;;;;;;23.51;52.46;101127.05;107569;1251;107927;-61
2023/07/17 00:21:34;;;;;;;;;;;;;;;23.43;52.92;101131.41;107623;1251;99245;-61
2023/07/17 00:24:03;;;;;;;;;;;;;;;23.37;53.16;101130.19;107624;1251;99160;-61
2023/07/17 00:26:31;;;;;;;;;;;;;;;23.34;53.13;101129.61;107580;1251;112343;-62
2023/07/17 00:29:20;;;;;;;;;;;;;;;23.29;53.52;101131.94;107653;1251;109016;-62
2023/07/17 00:31:48;;;;;;;;;;;;;;;23.20;53.89;101133.45;107623;1255;107589;-63
2023/07/17 00:34:17;;;;;;;;;;;;;;;23.14;54.18;101133.17;107578;1254;99161;-61
2023/07/17 00:36:46;;;;;;;;;;;;;;;23.07;54.21;101134.43;107626;1254;99159;-62
2023/07/17 00:39:14;;;;;;;;;;;;;;;23.03;54.67;101128.86;107614;1254;113156;-61
2023/07/17 00:41:42;;;;;;;;;;;;;;;22.98;54.94;101131.18;107659;1254;109924;-63
2023/07/17 00:44:12;;;;;;;;;;;;;;;22.89;56.03;101129.02;107606;1255;108111;-64
2023/07/17 00:46:40;;;;;;;;;;;;;;;22.82;55.96;101126.28;107588;1253;99164;-62
2023/07/17 00:49:10;;;;;;;;;;;;;;;22.79;56.14;101127.08;107630;1251;99064;-62
2023/07/17 00:51:40;;;;;;;;;;;;;;;22.77;56.06;101127.48;107607;1251;113335;-62
2023/07/17 00:54:10;;;;;;;;;;;;;;;22.76;55.82;101124.03;107591;1255;109839;-62
2023/07/17 00:56:38;;;;;;;;;;;;;;;22.74;55.61;101125.96;107615;1255;108480;-62
2023/07/17 00:59:06;;;;;;;;;;;;;;;22.73;55.77;101128.20;107560;1254;99278;-62
2023/07/17 01:01:34;;;;;;;;;;;;;;;22.70;56.12;101131.65;107630;1256;99057;-61
2023/07/17 01:04:05;;;;;;;;;;;;;;;22.64;56.09;101134.60;107582;1254;113409;-62
2023/07/17 01:06:38;;;;;;;;;;;;;;;22.59;56.39;101133.53;107621;1253;110518;-63
2023/07/17 01:09:07;;;;;;;;;;;;;;;22.55;56.48;101131.67;107619;1254;107695;-62
2023/07/17 01:11:35;;;;;;;;;;;;;;;22.52;56.81;101135.75;107629;1254;99086;-62
2023/07/17 01:14:04;;;;;;;;;;;;;;;22.48;56.92;101136.50;107599;1251;99163;-63
2023/07/17 01:16:34;;;;;;;;;;;;;;;22.45;56.84;101133.32;107629;1251;112875;-62
2023/07/17 01:19:03;;;;;;;;;;;;;;;22.44;56.82;101137.63;107581;1251;110142;-61
2023/07/17 01:21:34;;;;;;;;;;;;;;;22.39;56.69;101141.17;107601;1251;108434;-61
2023/07/17 01:24:03;;;;;;;;;;;;;;;22.35;56.96;101137.57;107596;1251;99144;-61
2023/07/17 01:26:31;;;;;;;;;;;;;;;22.32;57.24;101138.31;107602;1257;99166;-61
2023/07/17 01:28:59;;;;;;;;;;;;;;;22.27;57.46;101137.02;107689;1251;113575;-61
2023/07/17 01:31:27;;;;;;;;;;;;;;;22.23;57.31;101136.47;107555;1251;109959;-61
2023/07/17 01:33:56;;;;;;;;;;;;;;;22.18;57.56;101138.27;107567;1251;109164;-62
2023/07/17 01:36:26;;;;;;;;;;;;;;;22.15;57.57;101138.96;107609;1251;99234;-63
2023/07/17 01:38:55;;;;;;;;;;;;;;;22.11;57.82;101144.34;107610;1251;99256;-62
2023/07/17 01:41:23;;;;;;;;;;;;;;;22.09;58.12;101147.99;107594;1254;113194;-62
2023/07/17 01:43:51;;;;;;;;;;;;;;;22.06;57.89;101149.75;107608;1251;109744;-62
2023/07/17 01:46:20;;;;;;;;;;;;;;;22.05;57.73;101148.45;107571;1256;108250;-61
2023/07/17 01:48:48;;;;;;;;;;;;;;;22.01;58.28;101148.01;107484;1254;99143;-63
2023/07/17 01:51:16;;;;;;;;;;;;;;;21.98;58.39;101151.19;107641;1254;99077;-63
2023/07/17 01:53:45;;;;;;;;;;;;;;;21.94;58.41;101149.14;107558;1254;113093;-62
2023/07/17 01:56:13;;;;;;;;;;;;;;;21.91;59.05;101153.05;107629;1251;109161;-62
2023/07/17 01:58:42;;;;;;;;;;;;;;;21.87;59.21;101153.13;107602;1251;108139;-61
2023/07/17 02:01:10;;;;;;;;;;;;;;;21.86;59.02;101157.70;107571;1251;99178;-63
2023/07/17 02:03:39;;;;;;;;;;;;;;;21.83;59.39;101157.92;107644;1254;99064;-62
2023/07/17 02:06:07;;;;;;;;;;;;;;;21.78;59.15;101158.20;107619;1254;112462;-62
2023/07/17 02:08:36;;;;;;;;;;;;;;;21.72;59.28;101162.21;107598;1250;109554;-62
2023/07/17 02:11:04;;;;;;;;;;;;;;;21.69;59.74;101162.70;107520;1251;107994;-63
2023/07/17 02:13:32;;;;;;;;;;;;;;;21.66;60.16;101165.79;107559;1253;99141;-61
2023/07/17 02:16:00;;;;;;;;;;;;;;;21.61;60.37;101164.41;107547;1251;99051;-61
2023/07/17 02:18:31;;;;;;;;;;;;;;;21.56;60.73;101165.95;107578;1253;112951;-61
2023/07/17 02:21:00;;;;;;;;;;;;;;;21.52;60.72;101167.48;107572;1251;109730;-62
2023/07/17 02:23:28;;;;;;;;;;;;;;;21.50;60.54;101168.86;107589;1251;108349;-60
2023/07/17 02:25:56;;;;;;;;;;;;;;;21.50;60.88;101165.05;107524;1251;99016;-61
2023/07/17 02:28:25;;;;;;;;;;;;;;;21.50;61.09;101168.90;107505;1256;99143;-61
2023/07/17 02:30:53;;;;;;;;;;;;;;;21.49;60.92;101175.71;107525;1251;112112;-61
2023/07/17 02:33:21;;;;;;;;;;;;;;;21.49;61.05;101177.02;107625;1256;109769;-61
2023/07/17 02:35:52;;;;;;;;;;;;;;;21.49;61.03;101173.56;107520;1251;108036;-62
2023/07/17 02:38:20;;;;;;;;;;;;;;;21.49;61.10;101174.69;107514;1251;99192;-63
2023/07/17 02:40:49;;;;;;;;;;;;;;;21.48;61.27;101173.51;107573;1255;99249;-61
2023/07/17 02:43:17;;;;;;;;;;;;;;;21.47;61.34;101171.32;107550;1251;112213;-60
2023/07/17 02:45:45;;;;;;;;;;;;;;;21.48;61.33;101173.13;107537;1256;110230;-61
2023/07/17 02:48:14;;;;;;;;;;;;;;;21.51;61.15;101175.81;107548;1251;107695;-60
2023/07/17 02:50:43;;;;;;;;;;;;;;;21.53;61.11;101179.31;107472;1251;99195;-61
2023/07/17 02:53:11;;;;;;;;;;;;;;;21.55;61.33;101182.31;107538;1250;99169;-61
2023/07/17 02:55:39;;;;;;;;;;;;;;;21.58;61.54;101182.61;107600;1255;112667;-61
2023/07/17 02:58:07;;;;;;;;;;;;;;;21.61;61.36;101182.69;107613;1251;109366;-61
2023/07/17 03:00:36;;;;;;;;;;;;;;;21.63;61.24;101182.11;107524;1250;109107;-63
2023/07/17 03:03:07;;;;;;;;;;;;;;;21.63;61.19;101187.50;107647;1251;99237;-63
2023/07/17 03:05:37;;;;;;;;;;;;;;;21.63;61.40;101185.83;107592;1251;99061;-61
2023/07/17 03:08:05;;;;;;;;;;;;;;;21.63;61.46;101183.89;107619;1254;112348;-60
2023/07/17 03:10:34;;;;;;;;;;;;;;;21.65;62.05;101191.10;107559;1257;109643;-62
2023/07/17 03:13:02;;;;;;;;;;;;;;;21.70;61.97;101193.79;107523;1254;108530;-62
2023/07/17 03:15:30;;;;;;;;;;;;;;;21.71;61.84;101193.00;107578;1254;99256;-63
2023/07/17 03:17:59;;;;;;;;;;;;;;;21.73;62.06;101193.27;107599;1254;99302;-62
2023/07/17 03:20:27;;;;;;;;;;;;;;;21.76;62.01;101189.52;107572;1255;112563;-63
2023/07/17 03:22:55;;;;;;;;;;;;;;;21.79;61.88;101196.21;107606;1254;109816;-61
2023/07/17 03:25:24;;;;;;;;;;;;;;;21.81;61.76;101195.35;107500;1254;107818;-61
2023/07/17 03:27:52;;;;;;;;;;;;;;;21.84;61.68;101201.39;107562;1257;99089;-62
2023/07/17 03:30:20;;;;;;;;;;;;;;;21.85;61.51;101205.77;107565;1257;99182;-63
2023/07/17 03:32:48;;;;;;;;;;;;;;;21.87;61.55;101210.29;107560;1254;113189;-62
2023/07/17 03:35:19;;;;;;;;;;;;;;;21.89;61.75;101210.98;107588;1254;110123;-61
2023/07/17 03:37:48;;;;;;;;;;;;;;;21.92;61.62;101209.65;107562;1254;107859;-62
2023/07/17 03:40:16;;;;;;;;;;;;;;;21.96;61.65;101210.64;107574;1256;99164;-62
2023/07/17 03:42:45;;;;;;;;;;;;;;;21.99;61.85;101209.99;107559;1255;99080;-63
2023/07/17 03:45:14;;;;;;;;;;;;;;;22.02;61.56;101204.83;107529;1253;113187;-61
2023/07/17 03:47:42;;;;;;;;;;;;;;;22.08;61.84;101206.15;107649;1251;108688;-61
2023/07/17 03:50:10;;;;;;;;;;;;;;;22.14;61.85;101209.23;107574;1254;107802;-61
2023/07/17 03:52:39;;;;;;;;;;;;;;;22.20;61.66;101210.61;107555;1255;99167;-62
2023/07/17 03:55:08;;;;;;;;;;;;;;;22.26;61.58;101209.26;107565;1251;99049;-61
2023/07/17 03:57:36;;;;;;;;;;;;;;;22.32;61.41;101210.71;107530;1256;112560;-61
2023/07/17 04:00:09;;;;;;;;;;;;;;;22.37;61.30;101210.35;107552;1257;109154;-62
2023/07/17 04:02:41;;;;;;;;;;;;;;;22.43;61.20;101214.54;107600;1255;108191;-61
2023/07/17 04:05:17;;;;;;;;;;;;;;;22.48;60.98;101215.67;107572;1251;99318;-62
2023/07/17 04:07:45;;;;;;;;;;;;;;;22.53;61.01;101219.30;107615;1256;99152;-62
2023/07/17 04:10:14;;;;;;;;;;;;;;;22.57;61.03;101220.34;107578;1251;112771;-62
2023/07/17 04:12:42;;;;;;;;;;;;;;;22.62;61.01;101220.02;107530;1254;109156;-61
2023/07/17 04:15:11;;;;;;;;;;;;;;;22.68;60.93;101224.63;107551;1251;109621;-62
2023/07/17 04:17:39;;;;;;;;;;;;;;;22.73;60.95;101228.16;107526;1251;99200;-63
2023/07/17 04:20:11;;;;;;;;;;;;;;;22.76;60.58;101226.61;107568;1251;99668;-60
2023/07/17 04:22:39;;;;;;;;;;;;;;;22.80;60.46;101231.16;107604;1250;111857;-62
2023/07/17 04:25:09;;;;;;;;;;;;;;;22.85;60.59;101233.55;107676;1257;108070;-61
2023/07/17 04:27:41;;;;;;;;;;;;;;;22.88;60.48;101237.39;107590;1257;107921;-62
2023/07/17 04:30:10;;;;;;;;;;;;;;;22.93;60.24;101242.69;107587;1251;99268;-60
2023/07/17 04:32:38;;;;;;;;;;;;;;;22.97;60.16;101246.33;107596;1250;99272;-63
2023/07/17 04:35:06;;;;;;;;;;;;;;;23.02;60.02;101238.65;107516;1257;113274;-62
2023/07/17 04:37:36;;;;;;;;;;;;;;;23.05;59.92;101239.55;107578;1251;109824;-61
2023/07/17 04:40:08;;;;;;;;;;;;;;;23.07;59.75;101239.09;107494;1251;108027;-63
2023/07/17 04:42:37;;;;;;;;;;;;;;;23.10;59.80;101242.20;107552;1254;99112;-61
2023/07/17 04:45:07;;;;;;;;;;;;;;;23.13;59.92;101245.21;107488;1256;99153;-61
2023/07/17 04:47:36;;;;;;;;;;;;;;;23.16;59.51;101248.02;107632;1256;113750;-60
2023/07/17 04:50:05;;;;;;;;;;;;;;;23.18;59.37;101248.70;107627;1253;109513;-60
2023/07/17 04:52:34;;;;;;;;;;;;;;;23.19;59.39;101248.34;107594;1255;108644;-61
2023/07/17 04:55:03;;;;;;;;;;;;;;;23.21;59.56;101249.73;107587;1257;99248;-61
2023/07/17 04:57:31;;;;;;;;;;;;;;;23.23;59.33;101250.16;107537;1251;99026;-61
2023/07/17 05:00:00;;;;;;;;;;;;;;;23.26;59.35;101246.19;107599;1254;112869;-63
2023/07/17 05:02:29;;;;;;;;;;;;;;;23.29;59.14;101246.55;107597;1256;110128;-61
2023/07/17 05:04:58;;;;;;;;;;;;;;;23.31;59.26;101244.48;107592;1254;107194;-61
2023/07/17 05:07:27;;;;;;;;;;;;;;;23.33;59.33;101245.58;107597;1254;98952;-60
2023/07/17 05:09:55;;;;;;;;;;;;;;;23.34;59.16;101246.33;107575;1254;99236;-62
2023/07/17 05:12:23;;;;;;;;;;;;;;;23.35;59.21;101252.55;107604;1251;113422;-61
2023/07/17 05:14:55;;;;;;;;;;;;;;;23.37;59.18;101253.73;107610;1251;109958;-63
2023/07/17 05:17:24;;;;;;;;;;;;;;;23.40;59.31;101254.06;107582;1255;107805;-62
2023/07/17 05:19:52;;;;;;;;;;;;;;;23.44;59.18;101255.38;107498;1254;99179;-61
2023/07/17 05:22:23;;;;;;;;;;;;;;;23.48;59.14;101260.49;107639;1254;99179;-62
2023/07/17 05:24:51;;;;;;;;;;;;;;;23.52;59.04;101259.73;107604;1256;112445;-63
2023/07/17 05:27:20;;;;;;;;;;;;;;;23.58;59.05;101255.89;107630;1256;108991;-59
2023/07/17 05:29:48;;;;;;;;;;;;;;;23.63;58.79;101255.09;107552;1254;108258;-63
2023/07/17 05:32:17;;;;;;;;;;;;;;;23.65;58.89;101258.89;107587;1254;99247;-61
2023/07/17 05:34:46;;;;;;;;;;;;;;;23.70;58.59;101262.44;107619;1256;99064;-61
2023/07/17 05:37:17;;;;;;;;;;;;;;;23.74;58.73;101261.67;107508;1251;112380;-60
2023/07/17 05:39:46;;;;;;;;;;;;;;;23.79;58.98;101254.98;107594;1255;110346;-61
2023/07/17 05:42:15;;;;;;;;;;;;;;;23.84;58.68;101255.79;107524;1257;108054;-61
2023/07/17 05:44:44;;;;;;;;;;;;;;;23.87;58.74;101255.92;107660;1254;99191;-62
2023/07/17 05:47:13;;;;;;;;;;;;;;;23.91;58.65;101258.83;107614;1255;98366;-61
2023/07/17 05:49:41;;;;;;;;;;;;;;;23.96;58.43;101258.44;107525;1254;113651;-61
2023/07/17 05:52:09;;;;;;;;;;;;;;;24.00;58.22;101259.77;107543;1254;109973;-61
2023/07/17 05:54:38;;;;;;;;;;;;;;;24.03;58.52;101260.10;107465;1254;109806;-62
2023/07/17 05:57:07;;;;;;;;;;;;;;;24.04;58.01;101259.27;107499;1254;99178;-61
2023/07/17 05:59:37;;;;;;;;;;;;;;;24.07;58.01;101255.20;107538;1254;99174;-59
2023/07/17 06:02:05;;;;;;;;;;;;;;;24.12;57.90;101258.65;107529;1254;114062;-61
2023/07/17 06:04:34;;;;;;;;;;;;;;;24.15;58.09;101262.28;107657;1255;109903;-62
2023/07/17 06:07:04;;;;;;;;;;;;;;;24.20;57.49;101258.77;107651;1254;107994;-61
2023/07/17 06:09:34;;;;;;;;;;;;;;;24.25;57.34;101263.02;107497;1251;99273;-62
2023/07/17 06:12:03;;;;;;;;;;;;;;;24.31;57.28;101262.36;107480;1251;99135;-63
2023/07/17 06:14:31;;;;;;;;;;;;;;;24.38;57.09;101265.05;107468;1254;113557;-61
2023/07/17 06:16:59;;;;;;;;;;;;;;;24.44;57.28;101265.63;107510;1251;109774;-62
2023/07/17 06:19:30;;;;;;;;;;;;;;;24.50;57.10;101259.93;107641;1254;108684;-61
2023/07/17 06:21:58;;;;;;;;;;;;;;;24.58;57.06;101258.98;107592;1254;99170;-60
2023/07/17 06:24:26;;;;;;;;;;;;;;;24.65;56.76;101260.65;107608;1254;99169;-61
2023/07/17 06:26:55;;;;;;;;;;;;;;;24.73;56.46;101261.40;107584;1251;114038;-62
2023/07/17 06:29:24;;;;;;;;;;;;;;;24.82;56.25;101263.64;107507;1251;109069;-60
2023/07/17 06:31:52;;;;;;;;;;;;;;;24.91;56.16;101259.18;107544;1251;108883;-64
2023/07/17 06:34:20;;;;;;;;;;;;;;;25.02;56.03;101260.93;107440;1254;99273;-61
2023/07/17 06:36:50;;;;;;;;;;;;;;;25.12;55.79;101257.99;107549;1254;99968;-61
2023/07/17 06:39:18;;;;;;;;;;;;;;;25.23;55.68;101258.81;107514;1251;113653;-61
2023/07/17 06:41:48;;;;;;;;;;;;;;;25.31;54.84;101262.07;107477;1251;110120;-61
2023/07/17 06:44:16;;;;;;;;;;;;;;;25.42;54.82;101261.46;107578;1254;108418;-61
2023/07/17 06:46:45;;;;;;;;;;;;;;;25.56;54.65;101263.48;107591;1256;99236;-59
2023/07/17 06:49:13;;;;;;;;;;;;;;;25.73;54.10;101263.25;107497;1251;99157;-63
2023/07/17 06:51:41;;;;;;;;;;;;;;;25.87;53.68;101264.44;107465;1251;112575;-61
2023/07/17 06:54:09;;;;;;;;;;;;;;;26.02;53.54;101264.11;107508;1254;109714;-60
2023/07/17 06:56:37;;;;;;;;;;;;;;;26.16;53.19;101264.48;107553;1251;108659;-60
2023/07/17 06:59:06;;;;;;;;;;;;;;;26.30;52.87;101262.50;107556;1254;99332;-63
2023/07/17 07:01:34;;;;;;;;;;;;;;;26.40;52.55;101259.63;107557;1254;99044;-62
2023/07/17 07:04:02;;;;;;;;;;;;;;;26.49;52.57;101260.66;107626;1251;113794;-61
2023/07/17 07:06:31;;;;;;;;;;;;;;;26.58;52.49;101256.83;107531;1250;110240;-60
2023/07/17 07:09:00;;;;;;;;;;;;;;;26.67;51.76;101253.27;107516;1254;108089;-61
2023/07/17 07:11:28;;;;;;;;;;;;;;;26.75;51.10;101253.17;107588;1254;99192;-61
2023/07/17 07:13:56;;;;;;;;;;;;;;;26.83;51.32;101252.40;107511;1251;99156;-62
2023/07/17 07:16:24;;;;;;;;;;;;;;;26.89;51.19;101248.49;107453;1254;113371;-62
2023/07/17 07:18:53;;;;;;;;;;;;;;;26.97;50.75;101251.26;107528;1251;110254;-60
2023/07/17 07:21:21;;;;;;;;;;;;;;;27.01;50.58;101248.38;107514;1254;108455;-62
2023/07/17 07:23:49;;;;;;;;;;;;;;;27.04;50.08;101249.21;107531;1256;99263;-65
2023/07/17 07:26:18;;;;;;;;;;;;;;;27.07;50.17;101247.83;107434;1254;99222;-61
2023/07/17 07:28:47;;;;;;;;;;;;;;;27.10;50.05;101249.60;107467;1254;112722;-62
2023/07/17 07:31:15;;;;;;;;;;;;;;;27.12;49.58;101248.40;107587;1254;109352;-61
2023/07/17 07:33:44;;;;;;;;;;;;;;;27.11;49.80;101246.48;107448;1254;107368;-61
2023/07/17 07:36:12;;;;;;;;;;;;;;;27.12;49.81;101245.31;107402;1251;99150;-60
2023/07/17 07:38:40;;;;;;;;;;;;;;;27.14;49.32;101246.77;107524;1251;99181;-62
2023/07/17 07:41:08;;;;;;;;;;;;;;;27.14;48.60;101245.75;107638;1251;114043;-61
2023/07/17 07:43:37;;;;;;;;;;;;;;;27.18;48.96;101245.27;107458;1251;110130;-62
2023/07/17 07:46:05;;;;;;;;;;;;;;;27.23;48.46;101248.17;107420;1251;108172;-64
2023/07/17 07:48:34;;;;;;;;;;;;;;;27.27;47.85;101245.18;107287;1251;99185;-62
2023/07/17 07:51:03;;;;;;;;;;;;;;;27.28;47.47;101245.84;107509;1251;99178;-59
2023/07/17 07:53:31;;;;;;;;;;;;;;;27.30;47.05;101239.98;107362;1254;112462;-59
2023/07/17 07:56:10;;;;;;;;;;;;;;;27.32;47.07;101235.28;107506;1254;109827;-64
2023/07/17 07:58:38;;;;;;;;;;;;;;;27.38;47.70;101236.41;107404;1251;108504;-62
2023/07/17 08:01:05;;;;;;;;;;;;;;;27.47;47.69;101234.00;107436;1251;99169;-63
2023/07/17 08:03:34;;;;;;;;;;;;;;;27.54;47.77;101233.63;106683;1251;1057389;-62
2023/07/17 08:06:02;;;;;;;;;;;;;;;27.62;47.55;101232.10;107573;1254;113783;-62
2023/07/17 08:08:31;;;;;;;;;;;;;;;27.70;46.71;101233.01;107480;1251;109429;-62
2023/07/17 08:11:01;;;;;;;;;;;;;;;27.75;46.59;101232.85;107521;1251;108269;-61
2023/07/17 08:13:29;;;;;;;;;;;;;;;27.82;46.47;101226.56;107516;1251;99894;-61
2023/07/17 08:15:58;;;;;;;;;;;;;;;27.90;46.66;101225.00;107471;1251;99048;-61
2023/07/17 08:18:26;;;;;;;;;;;;;;;28.02;47.26;101225.72;107553;1252;113081;-61
2023/07/17 08:20:56;;;;;;;;;;;;;;;28.14;47.62;101225.67;107646;1254;109844;-64
2023/07/17 08:23:25;;;;;;;;;;;;;;;28.30;47.28;101225.15;107616;1254;108180;-62
2023/07/17 08:25:55;;;;;;;;;;;;;;;28.44;46.75;101226.81;107523;1254;99191;-63
2023/07/17 08:28:23;;;;;;;;;;;;;;;28.56;45.99;101227.29;107475;1251;99079;-62
2023/07/17 08:30:54;;;;;;;;;;;;;;;28.66;45.98;101223.33;107508;1251;112918;-61
2023/07/17 08:33:23;;;;;;;;;;;;;;;28.72;45.87;101220.83;107432;1251;109329;-62
2023/07/17 08:35:51;;;;;;;;;;;;;;;28.80;45.88;101218.36;107489;1253;108206;-63
2023/07/17 08:38:20;;;;;;;;;;;;;;;28.91;46.23;101220.73;107472;1254;99166;-62
2023/07/17 08:40:54;;;;;;;;;;;;;;;29.02;45.58;101216.44;107532;1251;99230;-62
2023/07/17 08:43:25;;;;;;;;;;;;;;;29.15;45.32;101218.83;107492;1254;113267;-62
2023/07/17 08:45:53;;;;;;;;;;;;;;;29.26;45.07;101217.45;107518;1250;110123;-62
2023/07/17 08:48:24;;;;;;;;;;;;;;;29.37;45.08;101214.23;107405;1250;106968;-63
2023/07/17 08:50:53;;;;;;;;;;;;;;;29.51;44.90;101213.79;107616;1253;99290;-63
2023/07/17 08:53:23;;;;;;;;;;;;;;;29.66;44.92;101212.26;107604;1256;99186;-60
2023/07/17 08:55:53;;;;;;;;;;;;;;;29.80;44.55;101214.06;107528;1251;113233;-63
2023/07/17 08:58:27;;;;;;;;;;;;;;;29.96;44.22;101207.54;107460;1251;108791;-62
2023/07/17 09:00:55;;;;;;;;;;;;;;;30.14;43.62;101206.02;107438;1251;108615;-63
2023/07/17 09:03:24;;;;;;;;;;;;;;;30.31;42.63;101204.34;107514;1254;99363;-61
2023/07/17 09:05:52;;;;;;;;;;;;;;;30.42;42.98;101198.42;107477;1251;99187;-61
2023/07/17 09:08:20;;;;;;;;;;;;;;;30.59;42.80;101206.48;107516;1251;113788;-60
2023/07/17 09:11:00;;;;;;;;;;;;;;;30.76;42.72;101206.61;107500;1250;109341;-61
2023/07/17 09:13:41;;;;;;;;;;;;;;;30.97;41.98;101207.91;107642;1254;107070;-62
2023/07/17 09:16:18;;;;;;;;;;;;;;;31.17;41.97;101206.46;107596;1254;99715;-60
2023/07/17 09:18:46;;;;;;;;;;;;;;;31.40;41.43;101201.98;107617;1253;99169;-60
2023/07/17 09:21:15;;;;;;;;;;;;;;;31.65;40.73;101201.39;107462;1254;113212;-60
2023/07/17 09:23:46;;;;;;;;;;;;;;;31.89;40.31;101199.71;107592;1254;109930;-62
2023/07/17 09:26:15;;;;;;;;;;;;;;;32.16;39.66;101198.80;107651;1256;107494;-60
2023/07/17 09:28:51;;;;;;;;;;;;;;;32.43;39.00;101194.58;107453;1251;99246;-60
2023/07/17 09:31:28;;;;;;;;;;;;;;;32.75;39.49;101193.71;107682;1251;99284;-63
2023/07/17 09:33:58;;;;;;;;;;;;;;;33.12;39.19;101184.91;107543;1254;113300;-60
2023/07/17 09:36:26;;;;;;;;;;;;;;;33.46;37.91;101184.14;107527;1253;109636;-61
2023/07/17 09:38:56;;;;;;;;;;;;;;;33.80;36.65;101185.23;107588;1254;108412;-63
2023/07/17 09:41:28;;;;;;;;;;;;;;;34.11;35.60;101183.31;107621;1251;99269;-64
2023/07/17 09:44:01;;;;;;;;;;;;;;;34.39;35.70;101179.06;107476;1251;99179;-63
2023/07/17 09:46:30;;;;;;;;;;;;;;;34.71;35.38;101181.50;107487;1254;113676;-62
2023/07/17 09:48:58;;;;;;;;;;;;;;;35.00;34.49;101183.55;107661;1255;108458;-61
2023/07/17 09:51:28;;;;;;;;;;;;;;;35.27;33.38;101181.77;107617;1251;108070;-61
2023/07/17 09:53:58;;;;;;;;;;;;;;;35.50;33.19;101177.77;107413;1254;99214;-60
2023/07/17 09:56:28;;;;;;;;;;;;;;;35.72;33.49;101175.05;107450;1251;99166;-66
2023/07/17 09:59:05;;;;;;;;;;;;;;;35.98;32.49;101173.15;107577;1254;113225;-60
2023/07/17 10:01:43;;;;;;;;;;;;;;;36.27;31.87;101167.64;107561;1254;109627;-61
2023/07/17 10:04:13;;;;;;;;;;;;;;;36.49;31.29;101167.63;107509;1251;109417;-62
2023/07/17 10:06:42;;;;;;;;;;;;;;;36.73;30.98;101165.20;107474;1252;99277;-63
2023/07/17 10:09:13;;;;;;;;;;;;;;;37.04;31.10;101164.31;107479;1251;99042;-62
2023/07/17 10:11:41;;;;;;;;;;;;;;;37.41;30.55;101162.55;107523;1254;113759;-62
2023/07/17 10:14:09;;;;;;;;;;;;;;;37.80;30.43;101162.10;107538;1250;109170;-61
2023/07/17 10:16:38;;;;;;;;;;;;;;;38.14;29.31;101159.39;107527;1251;107647;-62
2023/07/17 10:19:07;;;;;;;;;;;;;;;38.38;27.89;101162.69;107539;1251;99192;-63
2023/07/17 10:21:51;;;;;;;;;;;;;;;38.76;28.16;101156.30;107534;1251;99162;-61
2023/07/17 10:24:24;;;;;;;;;;;;;;;39.32;28.06;101155.63;107545;1251;113615;-62
2023/07/17 10:26:56;;;;;;;;;;;;;;;39.80;27.58;101154.60;107550;1251;110099;-61
2023/07/17 10:29:31;;;;;;;;;;;;;;;40.25;26.84;101149.85;107469;1251;108651;-62
2023/07/17 10:32:07;;;;;;;;;;;;;;;40.65;26.75;101144.73;107519;1252;99217;-62
2023/07/17 10:34:49;;;;;;;;;;;;;;;40.77;24.87;101143.41;107511;1251;99243;-64
2023/07/17 10:37:19;;;;;;;;;;;;;;;40.94;25.11;101139.50;107545;1251;112204;-64
2023/07/17 10:39:48;;;;;;;;;;;;;;;41.18;25.26;101138.55;107679;1253;108943;-63
2023/07/17 10:42:16;;;;;;;;;;;;;;;41.49;25.38;101137.11;107494;1254;108802;-61
2023/07/17 10:44:45;;;;;;;;;;;;;;;41.82;24.88;101133.58;107547;1251;99169;-62
2023/07/17 10:47:13;;;;;;;;;;;;;;;42.16;24.89;101132.50;107561;1251;99057;-63
2023/07/17 10:49:42;;;;;;;;;;;;;;;42.45;24.65;101128.86;107499;1251;112874;-61
2023/07/17 10:52:11;;;;;;;;;;;;;;;42.64;22.86;101124.57;107514;1254;109034;-63
2023/07/17 10:54:39;;;;;;;;;;;;;;;42.53;23.26;101121.89;107628;1251;108180;-63
2023/07/17 10:57:08;;;;;;;;;;;;;;;42.73;22.92;101116.15;107591;1251;99255;-61
2023/07/17 10:59:36;;;;;;;;;;;;;;;42.74;22.87;101119.19;107469;1251;99185;-63
2023/07/17 11:02:04;;;;;;;;;;;;;;;42.68;22.52;101115.58;107459;1250;113069;-60
2023/07/17 11:04:33;;;;;;;;;;;;;;;42.77;23.25;101112.27;107449;1251;110050;-61
2023/07/17 11:07:05;;;;;;;;;;;;;;;43.32;23.17;101110.46;107526;1251;108645;-62
2023/07/17 11:09:33;;;;;;;;;;;;;;;43.83;22.39;101107.20;107519;1254;99176;-63
2023/07/17 11:12:02;;;;;;;;;;;;;;;44.14;21.72;101104.23;107572;1251;99157;-60
2023/07/17 11:14:30;;;;;;;;;;;;;;;44.39;21.93;101101.73;107671;1254;114627;-61
2023/07/17 11:16:58;;;;;;;;;;;;;;;44.80;21.29;101100.37;107472;1254;109332;-62
2023/07/17 11:19:26;;;;;;;;;;;;;;;44.99;21.23;101096.17;107499;1251;108350;-62
2023/07/17 11:21:55;;;;;;;;;;;;;;;45.23;20.48;101094.86;107423;1254;99119;-61
2023/07/17 11:24:23;;;;;;;;;;;;;;;45.33;20.15;101094.88;107422;1254;99051;-61
2023/07/17 11:26:53;;;;;;;;;;;;;;;45.38;20.38;101093.88;107530;1251;113052;-61
2023/07/17 11:29:21;;;;;;;;;;;;;;;45.68;20.65;101095.25;107464;1251;109979;-62
2023/07/17 11:31:55;;;;;;;;;;;;;;;45.91;20.40;101089.14;107421;1254;108379;-62
2023/07/17 11:34:23;;;;;;;;;;;;;;;46.13;19.70;101085.30;107455;1251;99169;-61
2023/07/17 11:36:52;;;;;;;;;;;;;;;46.32;20.27;101081.73;107603;1253;99239;-61
2023/07/17 11:39:21;;;;;;;;;;;;;;;46.59;19.80;101080.47;107595;1254;113064;-62
2023/07/17 11:41:54;;;;;;;;;;;;;;;46.87;19.26;101077.53;107533;1251;109977;-63
2023/07/17 11:44:25;;;;;;;;;;;;;;;46.95;18.91;101075.88;107448;1253;107599;-61
2023/07/17 11:46:53;;;;;;;;;;;;;;;46.96;18.48;101071.90;107579;1251;99166;-61
2023/07/17 11:49:23;;;;;;;;;;;;;;;47.06;18.74;101068.92;107546;1254;99295;-61
2023/07/17 11:51:52;;;;;;;;;;;;;;;47.43;18.57;101068.08;107501;1251;113476;-63
2023/07/17 11:54:20;;;;;;;;;;;;;;;47.77;18.32;101069.95;107569;1251;108561;-61
2023/07/17 11:56:47;;;;;;;;;;;;;;;48.07;18.01;101064.50;107508;1251;108851;-63
2023/07/17 11:59:20;;;;;;;;;;;;;;;48.30;17.89;101067.73;107519;1253;99346;-61
2023/07/17 12:01:48;;;;;;;;;;;;;;;48.47;18.08;101060.98;107473;1254;99178;-62
2023/07/17 12:04:25;;;;;;;;;;;;;;;48.82;17.87;101053.77;107542;1251;113528;-62
2023/07/17 12:06:55;;;;;;;;;;;;;;;49.22;16.93;101048.17;107613;1251;109882;-61
2023/07/17 12:09:24;;;;;;;;;;;;;;;48.98;16.65;101049.69;107472;1251;108835;-62
2023/07/17 12:11:52;;;;;;;;;;;;;;;48.39;17.32;101052.67;107468;1251;99173;-63
2023/07/17 12:14:20;;;;;;;;;;;;;;;48.44;17.46;101044.66;107502;1251;99045;-63
2023/07/17 12:16:48;;;;;;;;;;;;;;;48.45;17.16;101043.02;107479;1250;113853;-61
2023/07/17 12:19:18;;;;;;;;;;;;;;;48.39;17.24;101045.34;107619;1253;110740;-62
2023/07/17 12:21:48;;;;;;;;;;;;;;;48.67;17.34;101039.03;107552;1254;108619;-62
2023/07/17 12:24:17;;;;;;;;;;;;;;;49.13;16.81;101038.23;107494;1251;99185;-62
2023/07/17 12:26:45;;;;;;;;;;;;;;;49.29;16.56;101035.00;107554;1251;99188;-62
2023/07/17 12:29:13;;;;;;;;;;;;;;;49.23;16.38;101031.44;107451;1254;112626;-62
2023/07/17 12:31:41;;;;;;;;;;;;;;;49.41;16.48;101028.16;107519;1253;110497;-61